createdAt,value
2018-09-11T00:02:23.676Z,95604.45
2018-09-11T00:04:51.994Z,95617.63
2018-09-11T00:07:20.363Z,95616.72
2018-09-11T00:09:48.629Z,95608.45
2018-09-11T00:12:16.892Z,95608.77
2018-09-11T00:14:45.158Z,95608.16
2018-09-11T00:17:13.489Z,95611.37
2018-09-11T00:19:41.739Z,95604.08
2018-09-11T00:22:09.998Z,95607.02
2018-09-11T00:24:38.261Z,95605.83
2018-09-11T00:27:06.540Z,95607.48
2018-09-11T00:29:34.890Z,95615.05
2018-09-11T00:32:03.257Z,95601.40
2018-09-11T00:34:31.596Z,95591.40
2018-09-11T00:36:59.969Z,95589.80
2018-09-11T00:39:28.234Z,95580.63
2018-09-11T00:41:56.590Z,95590.32
2018-09-11T00:44:24.949Z,95589.68
2018-09-11T00:46:53.286Z,95600.98
2018-09-11T00:49:21.626Z,95598.41
2018-09-11T00:51:50.024Z,95600.88
2018-09-11T00:54:18.339Z,95596.92
2018-09-11T00:56:46.814Z,95604.11
2018-09-11T00:59:15.072Z,95599.81
2018-09-11T01:01:43.391Z,95599.84
2018-09-11T01:04:11.689Z,95600.69
2018-09-11T01:06:39.954Z,95596.25
2018-09-11T01:09:09.302Z,95586.77
2018-09-11T01:11:37.727Z,95583.46
2018-09-11T01:14:06.279Z,95593.32
2018-09-11T01:16:34.734Z,95592.18
2018-09-11T01:19:03.137Z,95596.61
2018-09-11T01:21:31.508Z,95600.55
2018-09-11T01:23:59.891Z,95600.38
2018-09-11T01:26:28.307Z,95602.97
2018-09-11T01:28:56.864Z,95602.20
2018-09-11T01:31:25.281Z,95586.70
2018-09-11T01:33:53.707Z,95582.89
2018-09-11T01:36:21.957Z,95573.75
2018-09-11T01:38:50.187Z,95577.06
2018-09-11T01:41:18.626Z,95581.17
2018-09-11T01:43:46.894Z,95573.58
2018-09-11T01:46:15.171Z,95575.11
2018-09-11T01:48:43.426Z,95571.17
2018-09-11T01:51:11.763Z,95571.75
2018-09-11T01:53:40.023Z,95571.76
2018-09-11T01:56:08.282Z,95567.80
2018-09-11T01:58:36.569Z,95570.41
2018-09-11T02:01:04.955Z,95564.72
2018-09-11T02:03:33.335Z,95552.05
2018-09-11T02:06:01.748Z,95552.68
2018-09-11T02:08:30.227Z,95547.41
2018-09-11T02:10:58.736Z,95556.08
2018-09-11T02:13:27.146Z,95552.78
2018-09-11T02:15:55.470Z,95554.48
2018-09-11T02:18:23.759Z,95545.78
2018-09-11T02:20:52.250Z,95551.53
2018-09-11T02:23:20.651Z,95541.05
2018-09-11T02:25:49.083Z,95538.42
2018-09-11T02:28:17.382Z,95538.34
2018-09-11T02:30:45.648Z,95530.95
2018-09-11T02:33:13.939Z,95529.59
2018-09-11T02:35:42.212Z,95528.23
2018-09-11T02:38:10.583Z,95530.41
2018-09-11T02:40:38.831Z,95532.21
2018-09-11T02:43:07.116Z,95535.52
2018-09-11T02:45:35.339Z,95532.69
2018-09-11T02:48:03.601Z,95534.31
2018-09-11T02:50:31.842Z,95540.59
2018-09-11T02:53:00.096Z,95535.84
2018-09-11T02:55:28.359Z,95533.81
2018-09-11T02:57:56.652Z,95538.95
2018-09-11T03:00:31.218Z,95542.59
2018-09-11T03:02:59.611Z,95544.29
2018-09-11T03:05:28.115Z,95543.86
2018-09-11T03:07:56.531Z,95550.93
2018-09-11T03:10:24.862Z,95550.88
2018-09-11T03:12:53.106Z,95546.55
2018-09-11T03:15:21.371Z,95555.02
2018-09-11T03:17:49.621Z,95556.89
2018-09-11T03:20:17.890Z,95554.58
2018-09-11T03:22:46.138Z,95561.27
2018-09-11T03:25:14.429Z,95575.33
2018-09-11T03:27:42.674Z,95567.13
2018-09-11T03:30:10.922Z,95575.16
2018-09-11T03:32:39.265Z,95576.05
2018-09-11T03:35:07.603Z,95566.53
2018-09-11T03:37:36.078Z,95569.93
2018-09-11T03:40:04.387Z,95566.39
2018-09-11T03:42:32.761Z,95575.54
2018-09-11T03:45:01.091Z,95571.97
2018-09-11T03:47:29.433Z,95573.06
2018-09-11T03:49:57.790Z,95559.61
2018-09-11T03:52:26.050Z,95566.86
2018-09-11T03:54:54.410Z,95563.53
2018-09-11T03:57:22.742Z,95563.30
2018-09-11T03:59:51.027Z,95561.52
2018-09-11T04:02:19.342Z,95557.53
2018-09-11T04:04:47.702Z,95552.14
2018-09-11T04:07:15.994Z,95545.66
2018-09-11T04:09:44.283Z,95555.85
2018-09-11T04:12:12.658Z,95556.78
2018-09-11T04:14:40.986Z,95550.13
2018-09-11T04:17:09.451Z,95551.33
2018-09-11T04:19:37.926Z,95559.49
2018-09-11T04:22:06.196Z,95560.42
2018-09-11T04:24:34.773Z,95559.11
2018-09-11T04:27:07.060Z,95544.65
2018-09-11T04:29:35.702Z,95552.39
2018-09-11T04:32:04.327Z,95544.58
2018-09-11T04:34:32.846Z,95556.35
2018-09-11T04:37:01.286Z,95560.85
2018-09-11T04:39:29.778Z,95558.48
2018-09-11T04:41:59.647Z,95551.99
2018-09-11T04:44:47.173Z,95552.25
2018-09-11T04:50:06.334Z,95546.20
2018-09-11T04:55:51.656Z,95556.41
2018-09-11T04:58:20.266Z,95544.60
2018-09-11T05:00:48.630Z,95554.16
2018-09-11T05:03:16.900Z,95563.97
2018-09-11T05:05:45.211Z,95566.03
2018-09-11T05:08:13.564Z,95577.81
2018-09-11T05:10:41.913Z,95572.86
2018-09-11T05:13:10.182Z,95578.05
2018-09-11T05:15:38.477Z,95581.20
2018-09-11T05:18:06.760Z,95581.42
2018-09-11T05:20:35.107Z,95569.07
2018-09-11T05:23:03.414Z,95563.70
2018-09-11T05:25:31.746Z,95562.66
2018-09-11T05:28:00.028Z,95573.66
2018-09-11T05:30:28.648Z,95584.05
2018-09-11T05:32:56.944Z,95573.13
2018-09-11T05:35:25.236Z,95574.90
2018-09-11T05:37:53.498Z,95573.48
2018-09-11T05:40:21.793Z,95563.44
2018-09-11T05:42:50.059Z,95563.63
2018-09-11T05:45:18.334Z,95551.91
2018-09-11T05:47:46.619Z,95572.69
2018-09-11T05:50:14.919Z,95560.70
2018-09-11T05:52:43.206Z,95550.99
2018-09-11T05:55:11.504Z,95562.16
2018-09-11T05:57:39.986Z,95553.16
2018-09-11T06:00:08.439Z,95544.52
2018-09-11T06:02:36.797Z,95546.36
2018-09-11T06:05:05.223Z,95556.90
2018-09-11T06:07:33.780Z,95561.53
2018-09-11T06:10:02.091Z,95551.98
2018-09-11T06:12:30.402Z,95560.85
2018-09-11T06:14:58.742Z,95556.14
2018-09-11T06:17:27.047Z,95556.88
2018-09-11T06:19:55.326Z,95560.25
2018-09-11T06:22:23.578Z,95564.17
2018-09-11T06:24:51.851Z,95566.52
2018-09-11T06:27:20.107Z,95566.23
2018-09-11T06:29:48.395Z,95572.87
2018-09-11T06:32:16.719Z,95571.30
2018-09-11T06:34:44.990Z,95581.13
2018-09-11T06:37:13.322Z,95574.22
2018-09-11T06:39:41.742Z,95571.87
2018-09-11T06:42:10.143Z,95575.38
2018-09-11T06:44:45.046Z,95578.59
2018-09-11T06:47:13.276Z,95588.87
2018-09-11T06:49:41.580Z,95599.95
2018-09-11T06:52:09.859Z,95591.45
2018-09-11T06:54:38.153Z,95592.72
2018-09-11T06:57:06.442Z,95586.89
2018-09-11T06:59:34.741Z,95584.34
2018-09-11T07:02:03.214Z,95587.64
2018-09-11T07:04:31.370Z,95574.69
2018-09-11T07:06:59.683Z,95577.45
2018-09-11T07:09:28.018Z,95576.31
2018-09-11T07:11:56.319Z,95568.41
2018-09-11T07:14:24.618Z,95568.78
2018-09-11T07:16:52.897Z,95581.43
2018-09-11T07:19:21.187Z,95585.77
2018-09-11T07:21:49.495Z,95588.77
2018-09-11T07:24:17.793Z,95581.59
2018-09-11T07:26:46.059Z,95589.94
2018-09-11T07:29:14.490Z,95587.10
2018-09-11T07:31:42.959Z,95584.92
2018-09-11T07:34:11.407Z,95586.84
2018-09-11T07:36:40.027Z,95592.68
2018-09-11T07:39:08.954Z,95593.69
2018-09-11T07:41:37.390Z,95593.72
2018-09-11T07:44:05.820Z,95597.95
2018-09-11T07:46:34.231Z,95598.95
2018-09-11T07:49:02.593Z,95596.03
2018-09-11T07:51:30.967Z,95608.45
2018-09-11T07:53:59.335Z,95611.47
2018-09-11T07:56:27.789Z,95611.63
2018-09-11T07:58:56.202Z,95607.33
2018-09-11T08:01:24.574Z,95616.38
2018-09-11T08:03:52.951Z,95608.67
2018-09-11T08:06:21.243Z,95607.34
2018-09-11T08:08:49.575Z,95616.91
2018-09-11T08:11:17.927Z,95623.81
2018-09-11T08:13:46.205Z,95622.80
2018-09-11T08:16:14.679Z,95612.08
2018-09-11T08:18:43.003Z,95617.31
2018-09-11T08:21:11.482Z,95628.47
2018-09-11T08:23:39.939Z,95625.69
2018-09-11T08:26:08.299Z,95617.16
2018-09-11T08:28:36.837Z,95621.99
2018-09-11T08:31:05.298Z,95628.59
2018-09-11T08:33:33.634Z,95631.77
2018-09-11T08:36:01.999Z,95627.17
2018-09-11T08:38:30.420Z,95631.39
2018-09-11T08:40:58.867Z,95630.61
2018-09-11T08:43:27.235Z,95635.86
2018-09-11T08:45:55.687Z,95644.77
2018-09-11T08:48:24.147Z,95644.31
2018-09-11T08:50:52.584Z,95624.61
2018-09-11T08:53:21.003Z,95639.03
2018-09-11T08:55:49.495Z,95635.17
2018-09-11T08:58:17.911Z,95638.05
2018-09-11T09:00:46.400Z,95642.94
2018-09-11T09:03:14.882Z,95648.89
2018-09-11T09:05:43.315Z,95644.42
2018-09-11T09:08:11.696Z,95643.59
2018-09-11T09:10:40.094Z,95643.61
2018-09-11T09:13:08.481Z,95638.80
2018-09-11T09:15:43.145Z,95637.75
2018-09-11T09:18:11.415Z,95638.55
2018-09-11T09:20:39.814Z,95623.24
2018-09-11T09:23:08.230Z,95634.75
2018-09-11T09:25:36.614Z,95631.88
2018-09-11T09:28:05.084Z,95624.58
2018-09-11T09:30:33.466Z,95624.23
2018-09-11T09:33:01.915Z,95625.44
2018-09-11T09:35:30.231Z,95625.89
2018-09-11T09:37:58.630Z,95620.89
2018-09-11T09:40:27.159Z,95621.14
2018-09-11T09:42:55.545Z,95614.64
2018-09-11T09:45:23.986Z,95613.44
2018-09-11T09:47:52.405Z,95608.34
2018-09-11T09:50:20.795Z,95607.18
2018-09-11T09:52:49.244Z,95607.86
2018-09-11T09:55:17.696Z,95599.25
2018-09-11T09:57:46.098Z,95605.16
2018-09-11T10:00:19.454Z,95601.65
2018-09-11T10:02:47.886Z,95616.91
2018-09-11T10:05:16.323Z,95609.05
2018-09-11T10:07:44.752Z,95608.72
2018-09-11T10:10:13.211Z,95608.72
2018-09-11T10:12:41.701Z,95605.78
2018-09-11T10:15:10.132Z,95606.48
2018-09-11T10:17:38.623Z,95608.93
2018-09-11T10:20:07.011Z,95610.30
2018-09-11T10:22:35.466Z,95612.08
2018-09-11T10:25:03.905Z,95618.81
2018-09-11T10:27:32.287Z,95618.01
2018-09-11T10:30:00.690Z,95618.03
2018-09-11T10:32:29.092Z,95624.08
2018-09-11T10:34:57.536Z,95624.55
2018-09-11T10:37:26.049Z,95635.23
2018-09-11T10:39:54.730Z,95634.09
2018-09-11T10:42:23.147Z,95630.78
2018-09-11T10:44:51.634Z,95629.38
2018-09-11T10:47:20.063Z,95633.12
2018-09-11T10:49:48.522Z,95636.34
2018-09-11T10:52:16.998Z,95637.06
2018-09-11T10:54:45.519Z,95627.41
2018-09-11T10:57:13.969Z,95636.48
2018-09-11T10:59:42.415Z,95624.39
2018-09-11T11:02:10.738Z,95633.34
2018-09-11T11:04:39.243Z,95632.17
2018-09-11T11:07:07.637Z,95632.46
2018-09-11T11:09:35.988Z,95620.05
2018-09-11T11:12:04.404Z,95610.83
2018-09-11T11:14:32.785Z,95606.78
2018-09-11T11:17:01.143Z,95604.97
2018-09-11T11:19:29.470Z,95606.27
2018-09-11T11:21:57.894Z,95609.09
2018-09-11T11:24:26.448Z,95608.16
2018-09-11T11:26:54.971Z,95613.88
2018-09-11T11:29:23.507Z,95607.95
2018-09-11T11:31:51.859Z,95612.89
2018-09-11T11:34:20.296Z,95612.22
2018-09-11T11:36:48.809Z,95612.83
2018-09-11T11:39:17.148Z,95615.84
2018-09-11T11:41:45.615Z,95616.01
2018-09-11T11:44:13.886Z,95613.39
2018-09-11T11:46:42.247Z,95621.43
2018-09-11T11:49:11.526Z,95620.30
2018-09-11T11:51:39.989Z,95622.40
2018-09-11T11:54:08.319Z,95623.15
2018-09-11T11:56:36.714Z,95617.31
2018-09-11T11:59:05.442Z,95615.94
2018-09-11T12:01:33.819Z,95612.59
2018-09-11T12:04:02.216Z,95619.07
2018-09-11T12:06:30.573Z,95609.66
2018-09-11T12:08:58.970Z,95618.39
2018-09-11T12:11:27.343Z,95621.44
2018-09-11T12:13:55.778Z,95615.93
2018-09-11T12:16:24.191Z,95627.53
2018-09-11T12:18:52.592Z,95612.84
2018-09-11T12:21:20.990Z,95615.72
2018-09-11T12:23:49.372Z,95603.09
2018-09-11T12:26:18.059Z,95611.16
2018-09-11T12:28:46.471Z,95604.06
2018-09-11T12:31:14.942Z,95595.50
2018-09-11T12:33:43.338Z,95596.19
2018-09-11T12:36:11.865Z,95594.91
2018-09-11T12:38:40.397Z,95593.63
2018-09-11T12:41:08.768Z,95593.16
2018-09-11T12:43:37.181Z,95587.32
2018-09-11T12:46:05.772Z,95599.31
2018-09-11T12:48:34.097Z,95597.23
2018-09-11T12:51:02.415Z,95598.98
2018-09-11T12:53:30.844Z,95605.20
2018-09-11T12:55:59.195Z,95598.77
2018-09-11T12:58:27.563Z,95600.32
2018-09-11T13:00:55.984Z,95600.08
2018-09-11T13:03:24.423Z,95590.78
2018-09-11T13:05:53.723Z,95590.38
2018-09-11T13:08:22.230Z,95590.78
2018-09-11T13:10:50.706Z,95584.92
2018-09-11T13:13:19.030Z,95594.31
2018-09-11T13:15:47.434Z,95588.31
2018-09-11T13:18:15.836Z,95584.22
2018-09-11T13:20:44.200Z,95579.41
2018-09-11T13:23:12.599Z,95583.88
2018-09-11T13:25:40.970Z,95574.66
2018-09-11T13:28:09.478Z,95581.89
2018-09-11T13:30:37.904Z,95568.97
2018-09-11T13:33:06.552Z,95576.80
2018-09-11T13:35:35.123Z,95572.34
2018-09-11T13:38:03.651Z,95561.52
2018-09-11T13:40:32.060Z,95569.86
2018-09-11T13:43:00.433Z,95579.70
2018-09-11T13:45:28.942Z,95573.67
2018-09-11T13:47:57.399Z,95578.08
2018-09-11T13:50:25.909Z,95570.55
2018-09-11T13:52:54.299Z,95567.79
2018-09-11T13:55:22.718Z,95566.75
2018-09-11T13:57:51.838Z,95566.20
2018-09-11T14:00:20.255Z,95564.41
2018-09-11T14:02:48.667Z,95561.59
2018-09-11T14:05:17.028Z,95556.81
2018-09-11T14:07:45.379Z,95573.37
2018-09-11T14:10:14.143Z,95570.20
2018-09-11T14:12:42.775Z,95571.06
2018-09-11T14:15:11.324Z,95565.07
2018-09-11T14:17:39.731Z,95566.56
2018-09-11T14:20:08.203Z,95560.53
2018-09-11T14:22:36.547Z,95561.12
2018-09-11T14:25:05.178Z,95558.02
2018-09-11T14:27:33.609Z,95560.01
2018-09-11T14:30:02.006Z,95557.47
2018-09-11T14:32:30.461Z,95555.43
2018-09-11T14:34:58.875Z,95554.66
2018-09-11T14:37:27.274Z,95553.92
2018-09-11T14:39:55.634Z,95557.02
2018-09-11T14:42:24.015Z,95561.05
2018-09-11T14:44:52.400Z,95557.22
2018-09-11T14:47:20.734Z,95559.27
2018-09-11T14:49:49.111Z,95554.83
2018-09-11T14:52:17.544Z,95563.09
2018-09-11T14:54:45.932Z,95563.89
2018-09-11T14:57:14.324Z,95559.77
2018-09-11T14:59:42.690Z,95554.27
2018-09-11T15:02:11.046Z,95558.74
2018-09-11T15:04:39.426Z,95553.48
2018-09-11T15:07:07.843Z,95556.33
2018-09-11T15:09:36.289Z,95554.19
2018-09-11T15:12:04.693Z,95555.69
2018-09-11T15:14:33.104Z,95555.27
2018-09-11T15:17:01.520Z,95547.45
2018-09-11T15:19:29.931Z,95547.13
2018-09-11T15:21:58.377Z,95550.16
2018-09-11T15:24:26.768Z,95550.59
2018-09-11T15:26:55.140Z,95545.60
2018-09-11T15:29:23.644Z,95543.10
2018-09-11T15:31:51.933Z,95550.41
2018-09-11T15:34:20.335Z,95556.14
2018-09-11T15:36:48.631Z,95555.98
2018-09-11T15:39:16.922Z,95552.47
2018-09-11T15:41:45.214Z,95549.64
2018-09-11T15:44:13.567Z,95550.05
2018-09-11T15:46:41.859Z,95553.04
2018-09-11T15:49:10.274Z,95551.84
2018-09-11T15:51:38.683Z,95550.11
2018-09-11T15:54:07.010Z,95549.98
2018-09-11T15:56:35.550Z,95546.12
2018-09-11T15:59:04.228Z,95547.95
2018-09-11T16:01:32.649Z,95540.39
2018-09-11T16:04:01.006Z,95535.00
2018-09-11T16:06:29.389Z,95534.16
2018-09-11T16:08:57.767Z,95537.52
2018-09-11T16:11:26.186Z,95536.83
2018-09-11T16:13:54.548Z,95531.08
2018-09-11T16:16:23.000Z,95537.73
2018-09-11T16:18:51.422Z,95529.98
2018-09-11T16:21:19.824Z,95530.38
2018-09-11T16:23:48.239Z,95525.56
2018-09-11T16:26:16.658Z,95523.82
2018-09-11T16:28:45.059Z,95529.39
2018-09-11T16:31:13.538Z,95523.51
2018-09-11T16:33:41.966Z,95524.59
2018-09-11T16:36:10.397Z,95524.59
2018-09-11T16:38:38.728Z,95522.14
2018-09-11T16:41:07.150Z,95525.98
2018-09-11T16:43:35.546Z,95523.62
2018-09-11T16:46:03.978Z,95515.71
2018-09-11T16:48:33.379Z,95514.57
2018-09-11T16:51:01.790Z,95515.26
2018-09-11T16:53:30.256Z,95521.96
2018-09-11T16:55:58.670Z,95519.44
2018-09-11T16:58:27.177Z,95514.78
2018-09-11T17:00:55.584Z,95516.65
2018-09-11T17:03:24.003Z,95504.28
2018-09-11T17:05:52.422Z,95504.16
2018-09-11T17:08:20.890Z,95502.30
2018-09-11T17:10:49.270Z,95499.84
2018-09-11T17:13:17.696Z,95501.34
2018-09-11T17:15:46.099Z,95504.72
2018-09-11T17:18:14.536Z,95504.04
2018-09-11T17:20:42.948Z,95510.35
2018-09-11T17:23:11.398Z,95509.13
2018-09-11T17:25:44.991Z,95511.23
2018-09-11T17:28:13.672Z,95512.55
2018-09-11T17:30:41.990Z,95518.84
2018-09-11T17:33:10.320Z,95523.05
2018-09-11T17:35:38.679Z,95523.52
2018-09-11T17:38:07.956Z,95517.66
2018-09-11T17:40:41.757Z,95515.66
2018-09-11T17:43:10.220Z,95516.86
2018-09-11T17:45:38.695Z,95521.45
2018-09-11T17:48:07.216Z,95522.69
2018-09-11T17:50:35.695Z,95526.80
2018-09-11T17:53:06.718Z,95528.87
2018-09-11T17:55:43.188Z,95527.89
2018-09-11T17:58:11.717Z,95531.36
2018-09-11T18:00:41.828Z,95532.63
2018-09-11T18:03:10.260Z,95541.09
2018-09-11T18:05:38.766Z,95538.45
2018-09-11T18:08:07.377Z,95548.00
2018-09-11T18:10:35.858Z,95544.55
2018-09-11T18:13:04.603Z,95550.80
2018-09-11T18:15:33.134Z,95554.47
2018-09-11T18:18:01.579Z,95560.84
2018-09-11T18:20:29.958Z,95562.19
2018-09-11T18:22:58.342Z,95566.80
2018-09-11T18:25:26.945Z,95568.20
2018-09-11T18:28:01.970Z,95571.69
2018-09-11T18:30:30.511Z,95578.59
2018-09-11T18:32:58.907Z,95580.14
2018-09-11T18:35:27.475Z,95582.66
2018-09-11T18:37:55.846Z,95590.13
2018-09-11T18:40:27.196Z,95586.97
2018-09-11T18:42:55.575Z,95590.78
2018-09-11T18:45:24.303Z,95593.38
2018-09-11T18:47:52.668Z,95590.78
2018-09-11T18:50:21.396Z,95592.72
2018-09-11T18:52:49.930Z,95596.06
2018-09-11T18:55:18.391Z,95598.94
2018-09-11T18:57:46.928Z,95601.95
2018-09-11T19:00:15.189Z,95603.11
2018-09-11T19:02:43.575Z,95599.71
2018-09-11T19:05:12.029Z,95605.34
2018-09-11T19:07:40.523Z,95607.39
2018-09-11T19:10:09.707Z,95599.88
2018-09-11T19:12:38.151Z,95604.49
2018-09-11T19:15:06.577Z,95597.17
2018-09-11T19:17:35.119Z,95605.95
2018-09-11T19:20:04.033Z,95602.17
2018-09-11T19:22:32.618Z,95603.77
2018-09-11T19:25:01.146Z,95605.03
2018-09-11T19:27:29.694Z,95605.77
2018-09-11T19:29:58.571Z,95609.70
2018-09-11T19:32:27.159Z,95598.34
2018-09-11T19:34:55.640Z,95602.06
2018-09-11T19:37:24.287Z,95597.37
2018-09-11T19:39:52.744Z,95593.70
2018-09-11T19:42:21.370Z,95588.61
2018-09-11T19:44:49.647Z,95591.52
2018-09-11T19:47:18.042Z,95591.69
2018-09-11T19:49:46.380Z,95584.03
2018-09-11T19:52:14.778Z,95581.70
2018-09-11T19:54:43.109Z,95581.87
2018-09-11T19:57:11.592Z,95582.93
2018-09-11T19:59:39.974Z,95585.34
2018-09-11T20:02:08.324Z,95574.59
2018-09-11T20:04:36.704Z,95578.81
2018-09-11T20:07:05.060Z,95584.75
2018-09-11T20:09:33.479Z,95581.80
2018-09-11T20:12:01.846Z,95579.33
2018-09-11T20:14:30.233Z,95582.24
2018-09-11T20:16:58.599Z,95579.06
2018-09-11T20:19:26.973Z,95581.73
2018-09-11T20:21:55.422Z,95580.96
2018-09-11T20:24:23.744Z,95576.19
2018-09-11T20:26:52.135Z,95577.11
2018-09-11T20:29:20.599Z,95572.50
2018-09-11T20:31:49.018Z,95567.83
2018-09-11T20:34:17.459Z,95564.06
2018-09-11T20:36:45.880Z,95571.63
2018-09-11T20:39:14.301Z,95569.20
2018-09-11T20:41:42.739Z,95567.95
2018-09-11T20:44:11.524Z,95566.98
2018-09-11T20:46:40.086Z,95561.88
2018-09-11T20:49:08.552Z,95562.38
2018-09-11T20:51:36.946Z,95561.67
2018-09-11T20:54:05.359Z,95560.51
2018-09-11T20:56:33.756Z,95562.30
2018-09-11T20:59:02.091Z,95554.30
2018-09-11T21:01:30.495Z,95558.61
2018-09-11T21:03:58.888Z,95558.88
2018-09-11T21:06:27.256Z,95557.78
2018-09-11T21:08:55.558Z,95553.91
2018-09-11T21:11:24.014Z,95554.23
2018-09-11T21:13:52.410Z,95551.82
2018-09-11T21:16:20.804Z,95556.16
2018-09-11T21:18:49.157Z,95553.50
2018-09-11T21:21:17.638Z,95557.07
2018-09-11T21:23:45.975Z,95558.80
2018-09-11T21:26:14.378Z,95555.33
2018-09-11T21:28:42.677Z,95555.90
2018-09-11T21:31:11.064Z,95548.84
2018-09-11T21:33:39.427Z,95550.93
2018-09-11T21:36:07.815Z,95555.91
2018-09-11T21:38:36.231Z,95554.67
2018-09-11T21:41:04.627Z,95550.81
2018-09-11T21:43:33.025Z,95551.63
2018-09-11T21:46:01.423Z,95548.92
2018-09-11T21:48:29.835Z,95544.43
2018-09-11T21:50:58.220Z,95548.08
2018-09-11T21:53:26.652Z,95545.19
2018-09-11T21:55:55.042Z,95540.15
2018-09-11T21:58:23.454Z,95540.05
2018-09-11T22:00:57.935Z,95548.59
2018-09-11T22:03:26.300Z,95545.55
2018-09-11T22:05:54.764Z,95542.17
2018-09-11T22:08:23.198Z,95548.38
2018-09-11T22:10:51.614Z,95548.66
2018-09-11T22:13:20.002Z,95547.84
2018-09-11T22:15:48.370Z,95542.02
2018-09-11T22:18:16.728Z,95543.45
2018-09-11T22:20:45.123Z,95547.19
2018-09-11T22:23:13.576Z,95551.70
2018-09-11T22:25:41.935Z,95550.52
2018-09-11T22:28:10.370Z,95550.81
2018-09-11T22:30:38.764Z,95555.50
2018-09-11T22:33:07.124Z,95549.75
2018-09-11T22:35:35.511Z,95555.45
2018-09-11T22:38:03.907Z,95555.52
2018-09-11T22:40:32.268Z,95557.27
2018-09-11T22:43:00.661Z,95554.04
2018-09-11T22:45:29.767Z,95560.61
2018-09-11T22:47:58.146Z,95549.95
2018-09-11T22:50:26.672Z,95548.95
2018-09-11T22:52:55.064Z,95554.65
2018-09-11T22:55:23.487Z,95556.72
2018-09-11T22:57:51.831Z,95550.59
2018-09-11T23:00:20.218Z,95551.50
2018-09-11T23:02:48.627Z,95557.03
2018-09-11T23:05:16.985Z,95552.25
2018-09-11T23:07:45.369Z,95548.05
2018-09-11T23:10:13.709Z,95547.59
2018-09-11T23:12:42.067Z,95548.47
2018-09-11T23:15:10.416Z,95539.44
2018-09-11T23:17:38.758Z,95547.60
2018-09-11T23:20:07.030Z,95542.33
2018-09-11T23:22:35.378Z,95535.16
2018-09-11T23:25:03.672Z,95543.45
2018-09-11T23:27:32.046Z,95535.30
2018-09-11T23:30:00.416Z,95542.81
2018-09-11T23:32:28.761Z,95534.79
2018-09-11T23:34:57.112Z,95526.51
2018-09-11T23:37:25.493Z,95528.55
2018-09-11T23:39:53.784Z,95532.48
2018-09-11T23:42:22.125Z,95527.05
2018-09-11T23:44:50.491Z,95529.11
2018-09-11T23:47:18.898Z,95524.59
2018-09-11T23:49:47.294Z,95516.87
2018-09-11T23:52:15.657Z,95519.34
2018-09-11T23:54:44.054Z,95518.25
2018-09-11T23:57:12.396Z,95521.92
2018-09-11T23:59:40.766Z,95522.52
